sensor_id;sensor_type;location;lat;lon;timestamp;pressure;altitude;pressure_sealevel;temperature;humidity
20630;BME280;17386;43.846;25.950;2023-01-24T00:02:17;103100.47;;;3.17;100.00
20630;BME280;17386;43.846;25.950;2023-01-24T00:04:42;103097.72;;;3.14;100.00
20630;BME280;17386;43.846;25.950;2023-01-24T00:07:08;103089.78;;;3.11;100.00
20630;BME280;17386;43.846;25.950;2023-01-24T00:09:33;103100.28;;;3.11;100.00
20630;BME280;17386;43.846;25.950;2023-01-24T00:11:58;103109.22;;;3.16;100.00
20630;BME280;17386;43.846;25.950;2023-01-24T00:14:24;103109.00;;;3.10;100.00
20630;BME280;17386;43.846;25.950;2023-01-24T00:16:49;103107.91;;;3.03;100.00
20630;BME280;17386;43.846;25.950;2023-01-24T00:19:15;103101.03;;;3.08;100.00
20630;BME280;17386;43.846;25.950;2023-01-24T00:21:40;103102.06;;;3.12;100.00
20630;BME280;17386;43.846;25.950;2023-01-24T00:24:05;103108.94;;;3.08;100.00
20630;BME280;17386;43.846;25.950;2023-01-24T00:26:31;103099.88;;;2.98;100.00
20630;BME280;17386;43.846;25.950;2023-01-24T00:28:56;103102.56;;;3.01;100.00
20630;BME280;17386;43.846;25.950;2023-01-24T00:31:23;103089.59;;;3.06;100.00
20630;BME280;17386;43.846;25.950;2023-01-24T00:33:49;103094.91;;;3.08;100.00
20630;BME280;17386;43.846;25.950;2023-01-24T00:36:14;103090.16;;;2.96;100.00
20630;BME280;17386;43.846;25.950;2023-01-24T00:38:40;103095.91;;;3.11;100.00
20630;BME280;17386;43.846;25.950;2023-01-24T00:41:05;103104.72;;;3.13;100.00
20630;BME280;17386;43.846;25.950;2023-01-24T00:43:31;103106.84;;;2.98;100.00
20630;BME280;17386;43.846;25.950;2023-01-24T00:45:56;103101.69;;;3.01;100.00
20630;BME280;17386;43.846;25.950;2023-01-24T00:48:22;103094.66;;;3.00;100.00
20630;BME280;17386;43.846;25.950;2023-01-24T00:50:47;103089.97;;;2.90;100.00
20630;BME280;17386;43.846;25.950;2023-01-24T00:53:13;103089.44;;;3.01;99.43
20630;BME280;17386;43.846;25.950;2023-01-24T00:55:43;103090.41;;;3.04;98.89
20630;BME280;17386;43.846;25.950;2023-01-24T00:58:09;103084.34;;;3.06;98.67
20630;BME280;17386;43.846;25.950;2023-01-24T01:00:35;103084.34;;;3.06;98.38
20630;BME280;17386;43.846;25.950;2023-01-24T01:03:02;103095.66;;;3.04;97.87
20630;BME280;17386;43.846;25.950;2023-01-24T01:05:27;103093.97;;;3.06;98.23
20630;BME280;17386;43.846;25.950;2023-01-24T01:07:53;103104.06;;;2.93;98.86
20630;BME280;17386;43.846;25.950;2023-01-24T01:10:19;103102.25;;;2.91;98.93
20630;BME280;17386;43.846;25.950;2023-01-24T01:12:45;103106.94;;;3.01;99.07
20630;BME280;17386;43.846;25.950;2023-01-24T01:15:10;103101.34;;;2.90;98.79
20630;BME280;17386;43.846;25.950;2023-01-24T01:17:36;103111.09;;;2.94;98.65
20630;BME280;17386;43.846;25.950;2023-01-24T01:20:01;103100.19;;;2.82;98.22
20630;BME280;17386;43.846;25.950;2023-01-24T01:22:27;103110.84;;;2.87;98.45
20630;BME280;17386;43.846;25.950;2023-01-24T01:24:53;103098.50;;;2.84;98.75
20630;BME280;17386;43.846;25.950;2023-01-24T01:27:18;103106.19;;;2.78;99.46
20630;BME280;17386;43.846;25.950;2023-01-24T01:29:43;103104.41;;;2.77;100.00
20630;BME280;17386;43.846;25.950;2023-01-24T01:32:09;103098.13;;;2.73;100.00
20630;BME280;17386;43.846;25.950;2023-01-24T01:34:34;103090.63;;;2.84;100.00
20630;BME280;17386;43.846;25.950;2023-01-24T01:37:00;103088.44;;;2.71;100.00
20630;BME280;17386;43.846;25.950;2023-01-24T01:39:25;103090.22;;;2.72;100.00
20630;BME280;17386;43.846;25.950;2023-01-24T01:41:50;103098.50;;;2.84;100.00
20630;BME280;17386;43.846;25.950;2023-01-24T01:44:20;103090.72;;;2.87;100.00
20630;BME280;17386;43.846;25.950;2023-01-24T01:47:25;103097.88;;;2.91;100.00
20630;BME280;17386;43.846;25.950;2023-01-24T01:50:00;103097.63;;;2.84;100.00
20630;BME280;17386;43.846;25.950;2023-01-24T01:52:29;103089.06;;;2.64;100.00
20630;BME280;17386;43.846;25.950;2023-01-24T01:55:03;103092.84;;;2.72;100.00
20630;BME280;17386;43.846;25.950;2023-01-24T01:57:31;103092.34;;;2.82;100.00
20630;BME280;17386;43.846;25.950;2023-01-24T02:00:04;103082.81;;;2.60;100.00
20630;BME280;17386;43.846;25.950;2023-01-24T02:02:31;103078.66;;;2.67;100.00
20630;BME280;17386;43.846;25.950;2023-01-24T02:05:00;103082.97;;;2.65;100.00
20630;BME280;17386;43.846;25.950;2023-01-24T02:07:59;103084.72;;;2.64;100.00
20630;BME280;17386;43.846;25.950;2023-01-24T02:10:26;103088.84;;;2.58;100.00
20630;BME280;17386;43.846;25.950;2023-01-24T02:13:13;103081.59;;;2.51;100.00
20630;BME280;17386;43.846;25.950;2023-01-24T02:15:38;103084.00;;;2.44;100.00
20630;BME280;17386;43.846;25.950;2023-01-24T02:18:22;103075.97;;;2.40;100.00
20630;BME280;17386;43.846;25.950;2023-01-24T02:20:48;103080.41;;;2.41;100.00
20630;BME280;17386;43.846;25.950;2023-01-24T02:28:29;103093.03;;;2.27;100.00
20630;BME280;17386;43.846;25.950;2023-01-24T02:31:00;103091.56;;;2.35;100.00
20630;BME280;17386;43.846;25.950;2023-01-24T02:33:26;103089.53;;;2.27;100.00
20630;BME280;17386;43.846;25.950;2023-01-24T02:36:11;103088.78;;;2.31;100.00
20630;BME280;17386;43.846;25.950;2023-01-24T02:38:38;103089.00;;;2.37;100.00
20630;BME280;17386;43.846;25.950;2023-01-24T02:41:07;103095.84;;;2.33;100.00
20630;BME280;17386;43.846;25.950;2023-01-24T02:43:41;103097.31;;;2.25;100.00
20630;BME280;17386;43.846;25.950;2023-01-24T02:46:09;103089.03;;;2.38;100.00
20630;BME280;17386;43.846;25.950;2023-01-24T02:48:34;103094.72;;;2.51;100.00
20630;BME280;17386;43.846;25.950;2023-01-24T02:50:59;103084.75;;;2.40;100.00
20630;BME280;17386;43.846;25.950;2023-01-24T02:53:43;103080.31;;;2.39;100.00
20630;BME280;17386;43.846;25.950;2023-01-24T02:56:09;103076.94;;;2.42;100.00
20630;BME280;17386;43.846;25.950;2023-01-24T02:58:54;103081.69;;;2.54;100.00
20630;BME280;17386;43.846;25.950;2023-01-24T03:01:21;103085.13;;;2.51;100.00
20630;BME280;17386;43.846;25.950;2023-01-24T03:03:47;103087.34;;;2.64;100.00
20630;BME280;17386;43.846;25.950;2023-01-24T03:06:14;103091.00;;;2.69;100.00
20630;BME280;17386;43.846;25.950;2023-01-24T03:08:40;103085.91;;;2.49;100.00
20630;BME280;17386;43.846;25.950;2023-01-24T03:11:07;103084.31;;;2.54;100.00
20630;BME280;17386;43.846;25.950;2023-01-24T03:13:33;103091.78;;;2.41;100.00
20630;BME280;17386;43.846;25.950;2023-01-24T03:16:18;103086.00;;;2.52;100.00
20630;BME280;17386;43.846;25.950;2023-01-24T03:19:02;103086.06;;;2.53;100.00
20630;BME280;17386;43.846;25.950;2023-01-24T03:21:47;103099.34;;;2.58;100.00
20630;BME280;17386;43.846;25.950;2023-01-24T03:24:31;103102.56;;;2.49;100.00
20630;BME280;17386;43.846;25.950;2023-01-24T03:27:15;103097.66;;;2.34;100.00
20630;BME280;17386;43.846;25.950;2023-01-24T03:29:59;103102.38;;;2.44;100.00
20630;BME280;17386;43.846;25.950;2023-01-24T03:32:44;103109.25;;;2.41;100.00
20630;BME280;17386;43.846;25.950;2023-01-24T03:35:27;103110.38;;;2.47;100.00
20630;BME280;17386;43.846;25.950;2023-01-24T03:37:53;103121.59;;;2.43;100.00
20630;BME280;17386;43.846;25.950;2023-01-24T03:40:36;103121.03;;;2.28;100.00
20630;BME280;17386;43.846;25.950;2023-01-24T03:43:02;103134.72;;;2.43;99.92
20630;BME280;17386;43.846;25.950;2023-01-24T03:45:31;103126.84;;;2.43;99.58
20630;BME280;17386;43.846;25.950;2023-01-24T03:48:02;103124.22;;;2.43;99.73
20630;BME280;17386;43.846;25.950;2023-01-24T03:50:36;103130.16;;;2.39;99.94
20630;BME280;17386;43.846;25.950;2023-01-24T03:53:22;103128.53;;;2.41;100.00
20630;BME280;17386;43.846;25.950;2023-01-24T03:56:00;103129.13;;;2.34;100.00
20630;BME280;17386;43.846;25.950;2023-01-24T03:58:27;103140.06;;;2.46;99.93
20630;BME280;17386;43.846;25.950;2023-01-24T04:00:53;103131.38;;;2.47;99.25
20630;BME280;17386;43.846;25.950;2023-01-24T04:03:19;103134.66;;;2.42;99.41
20630;BME280;17386;43.846;25.950;2023-01-24T04:05:46;103139.44;;;2.54;99.64
20630;BME280;17386;43.846;25.950;2023-01-24T04:08:12;103140.34;;;2.54;98.94
20630;BME280;17386;43.846;25.950;2023-01-24T04:10:37;103145.19;;;2.43;98.83
20630;BME280;17386;43.846;25.950;2023-01-24T04:13:02;103148.75;;;2.45;98.52
20630;BME280;17386;43.846;25.950;2023-01-24T04:15:30;103145.88;;;2.38;98.45
20630;BME280;17386;43.846;25.950;2023-01-24T04:17:57;103140.84;;;2.44;98.87
20630;BME280;17386;43.846;25.950;2023-01-24T04:20:24;103143.66;;;2.49;98.63
20630;BME280;17386;43.846;25.950;2023-01-24T04:22:50;103131.69;;;2.57;98.94
20630;BME280;17386;43.846;25.950;2023-01-24T04:25:15;103134.63;;;2.66;98.13
20630;BME280;17386;43.846;25.950;2023-01-24T04:27:41;103145.38;;;2.48;97.29
20630;BME280;17386;43.846;25.950;2023-01-24T04:30:08;103139.09;;;2.44;97.56
20630;BME280;17386;43.846;25.950;2023-01-24T04:32:35;103153.63;;;2.59;97.81
20630;BME280;17386;43.846;25.950;2023-01-24T04:35:01;103145.88;;;2.62;98.01
20630;BME280;17386;43.846;25.950;2023-01-24T04:37:28;103158.91;;;2.60;97.50
20630;BME280;17386;43.846;25.950;2023-01-24T04:39:54;103148.91;;;2.74;98.43
20630;BME280;17386;43.846;25.950;2023-01-24T04:42:19;103144.72;;;2.79;97.19
20630;BME280;17386;43.846;25.950;2023-01-24T04:44:45;103133.59;;;2.61;96.12
20630;BME280;17386;43.846;25.950;2023-01-24T04:47:10;103140.75;;;2.66;96.59
20630;BME280;17386;43.846;25.950;2023-01-24T04:49:35;103142.44;;;2.64;95.82
20630;BME280;17386;43.846;25.950;2023-01-24T04:52:01;103145.75;;;2.59;96.36
20630;BME280;17386;43.846;25.950;2023-01-24T04:54:26;103162.28;;;2.56;96.31
20630;BME280;17386;43.846;25.950;2023-01-24T04:56:51;103159.72;;;2.58;96.67
20630;BME280;17386;43.846;25.950;2023-01-24T04:59:17;103161.53;;;2.60;96.63
20630;BME280;17386;43.846;25.950;2023-01-24T05:01:43;103160.59;;;2.58;96.12
20630;BME280;17386;43.846;25.950;2023-01-24T05:04:08;103154.47;;;2.58;96.35
20630;BME280;17386;43.846;25.950;2023-01-24T05:06:33;103156.50;;;2.66;96.85
20630;BME280;17386;43.846;25.950;2023-01-24T05:08:59;103157.63;;;2.73;96.46
20630;BME280;17386;43.846;25.950;2023-01-24T05:11:25;103163.03;;;2.78;96.42
20630;BME280;17386;43.846;25.950;2023-01-24T05:13:51;103156.00;;;2.77;96.42
20630;BME280;17386;43.846;25.950;2023-01-24T05:16:17;103160.41;;;2.78;97.54
20630;BME280;17386;43.846;25.950;2023-01-24T05:18:42;103163.31;;;2.85;99.16
20630;BME280;17386;43.846;25.950;2023-01-24T05:21:15;103170.13;;;2.80;96.84
20630;BME280;17386;43.846;25.950;2023-01-24T05:23:41;103167.09;;;2.68;96.71
20630;BME280;17386;43.846;25.950;2023-01-24T05:26:07;103174.22;;;2.72;97.23
20630;BME280;17386;43.846;25.950;2023-01-24T05:28:33;103162.47;;;2.61;97.61
20630;BME280;17386;43.846;25.950;2023-01-24T05:31:03;103167.97;;;2.68;97.63
20630;BME280;17386;43.846;25.950;2023-01-24T05:33:29;103172.47;;;2.72;98.05
20630;BME280;17386;43.846;25.950;2023-01-24T05:36:03;103162.81;;;2.71;97.54
20630;BME280;17386;43.846;25.950;2023-01-24T05:38:29;103172.34;;;2.68;97.48
20630;BME280;17386;43.846;25.950;2023-01-24T05:41:02;103174.16;;;2.70;97.52
20630;BME280;17386;43.846;25.950;2023-01-24T05:43:29;103169.28;;;2.81;97.20
20630;BME280;17386;43.846;25.950;2023-01-24T05:46:15;103170.06;;;2.79;96.23
20630;BME280;17386;43.846;25.950;2023-01-24T05:48:42;103177.16;;;2.81;96.06
20630;BME280;17386;43.846;25.950;2023-01-24T05:51:09;103172.88;;;2.83;96.43
20630;BME280;17386;43.846;25.950;2023-01-24T05:53:37;103185.16;;;2.84;95.86
20630;BME280;17386;43.846;25.950;2023-01-24T05:56:05;103176.66;;;2.91;96.86
20630;BME280;17386;43.846;25.950;2023-01-24T05:58:37;103183.72;;;2.94;96.23
20630;BME280;17386;43.846;25.950;2023-01-24T06:01:10;103187.25;;;2.94;96.24
20630;BME280;17386;43.846;25.950;2023-01-24T06:03:38;103190.72;;;2.93;96.49
20630;BME280;17386;43.846;25.950;2023-01-24T06:06:04;103192.56;;;2.96;96.75
20630;BME280;17386;43.846;25.950;2023-01-24T06:08:30;103188.88;;;2.91;96.38
20630;BME280;17386;43.846;25.950;2023-01-24T06:11:01;103193.19;;;2.89;96.34
20630;BME280;17386;43.846;25.950;2023-01-24T06:13:26;103193.28;;;2.92;95.95
20630;BME280;17386;43.846;25.950;2023-01-24T06:16:00;103196.97;;;2.97;96.32
20630;BME280;17386;43.846;25.950;2023-01-24T06:18:25;103198.63;;;2.95;95.93
20630;BME280;17386;43.846;25.950;2023-01-24T06:20:51;103195.34;;;3.00;95.83
20630;BME280;17386;43.846;25.950;2023-01-24T06:23:26;103197.13;;;3.01;95.81
20630;BME280;17386;43.846;25.950;2023-01-24T06:25:52;103203.22;;;3.00;96.06
20630;BME280;17386;43.846;25.950;2023-01-24T06:28:18;103209.53;;;3.06;96.63
20630;BME280;17386;43.846;25.950;2023-01-24T06:30:52;103207.97;;;3.11;96.74
20630;BME280;17386;43.846;25.950;2023-01-24T06:33:30;103208.19;;;3.17;96.25
20630;BME280;17386;43.846;25.950;2023-01-24T06:38:36;103219.81;;;2.99;95.88
20630;BME280;17386;43.846;25.950;2023-01-24T06:41:02;103214.88;;;2.83;96.68
20630;BME280;17386;43.846;25.950;2023-01-24T06:43:28;103225.66;;;2.91;96.20
20630;BME280;17386;43.846;25.950;2023-01-24T06:45:54;103222.34;;;2.96;95.90
20630;BME280;17386;43.846;25.950;2023-01-24T06:48:20;103230.47;;;2.79;96.29
20630;BME280;17386;43.846;25.950;2023-01-24T06:50:46;103236.19;;;2.92;96.46
20630;BME280;17386;43.846;25.950;2023-01-24T06:53:12;103230.06;;;2.92;96.91
20630;BME280;17386;43.846;25.950;2023-01-24T06:55:39;103228.44;;;2.95;97.16
20630;BME280;17386;43.846;25.950;2023-01-24T06:58:08;103232.69;;;2.92;97.22
20630;BME280;17386;43.846;25.950;2023-01-24T07:00:34;103235.31;;;2.92;97.24
20630;BME280;17386;43.846;25.950;2023-01-24T07:03:00;103234.38;;;2.90;97.23
20630;BME280;17386;43.846;25.950;2023-01-24T07:05:27;103233.63;;;2.94;97.61
20630;BME280;17386;43.846;25.950;2023-01-24T07:07:52;103231.25;;;3.01;97.59
20630;BME280;17386;43.846;25.950;2023-01-24T07:10:18;103233.00;;;3.01;97.36
20630;BME280;17386;43.846;25.950;2023-01-24T07:12:43;103236.41;;;2.98;97.15
20630;BME280;17386;43.846;25.950;2023-01-24T07:15:09;103233.78;;;2.98;96.11
20630;BME280;17386;43.846;25.950;2023-01-24T07:17:35;103234.84;;;3.04;96.10
20630;BME280;17386;43.846;25.950;2023-01-24T07:20:01;103238.41;;;3.06;95.51
20630;BME280;17386;43.846;25.950;2023-01-24T07:22:27;103227.25;;;3.11;95.30
20630;BME280;17386;43.846;25.950;2023-01-24T07:24:53;103239.63;;;3.15;94.75
20630;BME280;17386;43.846;25.950;2023-01-24T07:27:18;103223.81;;;3.14;94.16
20630;BME280;17386;43.846;25.950;2023-01-24T07:29:44;103226.03;;;3.27;94.39
20630;BME280;17386;43.846;25.950;2023-01-24T07:32:10;103233.19;;;3.31;93.53
20630;BME280;17386;43.846;25.950;2023-01-24T07:34:35;103234.94;;;3.31;93.20
20630;BME280;17386;43.846;25.950;2023-01-24T07:37:01;103236.03;;;3.37;92.92
20630;BME280;17386;43.846;25.950;2023-01-24T07:39:29;103228.44;;;3.46;92.82
20630;BME280;17386;43.846;25.950;2023-01-24T07:41:55;103233.94;;;3.54;92.02
20630;BME280;17386;43.846;25.950;2023-01-24T07:44:20;103243.47;;;3.50;91.46
20630;BME280;17386;43.846;25.950;2023-01-24T07:46:45;103234.75;;;3.51;91.51
20630;BME280;17386;43.846;25.950;2023-01-24T07:49:11;103239.13;;;3.51;91.20
20630;BME280;17386;43.846;25.950;2023-01-24T07:51:36;103236.38;;;3.48;90.95
20630;BME280;17386;43.846;25.950;2023-01-24T07:54:02;103234.97;;;3.58;91.03
20630;BME280;17386;43.846;25.950;2023-01-24T07:56:27;103237.50;;;3.56;90.87
20630;BME280;17386;43.846;25.950;2023-01-24T07:58:53;103231.53;;;3.60;90.71
20630;BME280;17386;43.846;25.950;2023-01-24T08:01:21;103236.63;;;3.55;90.70
20630;BME280;17386;43.846;25.950;2023-01-24T08:03:47;103228.16;;;3.64;90.63
20630;BME280;17386;43.846;25.950;2023-01-24T08:06:13;103230.06;;;3.70;90.74
20630;BME280;17386;43.846;25.950;2023-01-24T08:08:38;103225.13;;;3.79;90.47
20630;BME280;17386;43.846;25.950;2023-01-24T08:11:03;103230.19;;;3.73;90.15
20630;BME280;17386;43.846;25.950;2023-01-24T08:13:29;103225.22;;;3.82;90.17
20630;BME280;17386;43.846;25.950;2023-01-24T08:15:54;103222.50;;;3.79;90.20
20630;BME280;17386;43.846;25.950;2023-01-24T08:18:20;103230.63;;;3.87;90.01
20630;BME280;17386;43.846;25.950;2023-01-24T08:20:45;103226.56;;;3.69;89.91
20630;BME280;17386;43.846;25.950;2023-01-24T08:23:11;103223.88;;;3.68;90.31
20630;BME280;17386;43.846;25.950;2023-01-24T08:25:36;103228.69;;;3.81;90.11
20630;BME280;17386;43.846;25.950;2023-01-24T08:28:01;103224.81;;;3.70;89.59
20630;BME280;17386;43.846;25.950;2023-01-24T08:30:27;103224.16;;;3.77;90.34
20630;BME280;17386;43.846;25.950;2023-01-24T08:33:02;103228.06;;;3.90;90.52
20630;BME280;17386;43.846;25.950;2023-01-24T08:35:29;103228.22;;;3.94;90.10
20630;BME280;17386;43.846;25.950;2023-01-24T08:37:55;103226.22;;;3.86;89.13
20630;BME280;17386;43.846;25.950;2023-01-24T08:40:21;103228.88;;;3.87;89.46
20630;BME280;17386;43.846;25.950;2023-01-24T08:42:46;103227.44;;;3.97;89.50
20630;BME280;17386;43.846;25.950;2023-01-24T08:45:11;103232.66;;;3.95;88.83
20630;BME280;17386;43.846;25.950;2023-01-24T08:47:37;103242.78;;;3.83;89.14
20630;BME280;17386;43.846;25.950;2023-01-24T08:50:02;103233.47;;;3.93;89.46
20630;BME280;17386;43.846;25.950;2023-01-24T08:52:28;103246.28;;;3.83;89.48
20630;BME280;17386;43.846;25.950;2023-01-24T08:54:53;103236.19;;;3.69;90.23
20630;BME280;17386;43.846;25.950;2023-01-24T08:57:19;103234.41;;;3.68;90.04
20630;BME280;17386;43.846;25.950;2023-01-24T08:59:44;103243.13;;;3.67;90.41
20630;BME280;17386;43.846;25.950;2023-01-24T09:02:14;103232.91;;;3.76;90.65
20630;BME280;17386;43.846;25.950;2023-01-24T09:04:40;103235.03;;;3.61;90.63
20630;BME280;17386;43.846;25.950;2023-01-24T09:07:07;103240.50;;;3.67;90.68
20630;BME280;17386;43.846;25.950;2023-01-24T09:09:32;103232.16;;;3.53;90.56
20630;BME280;17386;43.846;25.950;2023-01-24T09:11:58;103228.94;;;3.62;89.84
20630;BME280;17386;43.846;25.950;2023-01-24T09:14:23;103230.88;;;3.67;90.46
20630;BME280;17386;43.846;25.950;2023-01-24T09:16:49;103227.41;;;3.68;89.50
20630;BME280;17386;43.846;25.950;2023-01-24T09:19:14;103228.50;;;3.75;89.11
20630;BME280;17386;43.846;25.950;2023-01-24T09:21:39;103226.31;;;3.89;88.98
20630;BME280;17386;43.846;25.950;2023-01-24T09:24:05;103221.03;;;3.89;87.98
20630;BME280;17386;43.846;25.950;2023-01-24T09:26:31;103221.53;;;3.77;87.72
20630;BME280;17386;43.846;25.950;2023-01-24T09:28:56;103212.91;;;3.81;87.46
20630;BME280;17386;43.846;25.950;2023-01-24T09:31:22;103210.03;;;3.73;86.94
20630;BME280;17386;43.846;25.950;2023-01-24T09:33:47;103216.56;;;3.84;87.01
20630;BME280;17386;43.846;25.950;2023-01-24T09:36:13;103211.59;;;3.95;86.57
20630;BME280;17386;43.846;25.950;2023-01-24T09:38:38;103212.19;;;4.14;86.28
20630;BME280;17386;43.846;25.950;2023-01-24T09:46:20;103223.06;;;4.26;84.76
20630;BME280;17386;43.846;25.950;2023-01-24T09:48:49;103217.38;;;4.41;84.95
20630;BME280;17386;43.846;25.950;2023-01-24T09:51:22;103210.53;;;4.47;84.55
20630;BME280;17386;43.846;25.950;2023-01-24T09:53:54;103210.66;;;4.52;85.19
20630;BME280;17386;43.846;25.950;2023-01-24T09:56:24;103214.34;;;4.58;84.19
20630;BME280;17386;43.846;25.950;2023-01-24T10:01:55;103210.22;;;4.36;84.35
20630;BME280;17386;43.846;25.950;2023-01-24T10:04:29;103210.84;;;4.28;86.01
20630;BME280;17386;43.846;25.950;2023-01-24T10:07:03;103204.75;;;4.29;85.91
20630;BME280;17386;43.846;25.950;2023-01-24T10:12:47;103214.44;;;4.31;85.30
20630;BME280;17386;43.846;25.950;2023-01-24T10:23:20;103207.44;;;4.32;86.00
20630;BME280;17386;43.846;25.950;2023-01-24T10:25:52;103210.19;;;4.35;85.89
20630;BME280;17386;43.846;25.950;2023-01-24T10:28:28;103207.19;;;4.23;85.12
20630;BME280;17386;43.846;25.950;2023-01-24T10:31:05;103199.94;;;4.16;85.84
20630;BME280;17386;43.846;25.950;2023-01-24T10:33:46;103194.31;;;4.03;85.47
20630;BME280;17386;43.846;25.950;2023-01-24T10:38:47;103194.28;;;4.02;86.28
20630;BME280;17386;43.846;25.950;2023-01-24T10:43:44;103190.72;;;4.00;87.64
20630;BME280;17386;43.846;25.950;2023-01-24T10:48:56;103180.50;;;4.10;88.03
20630;BME280;17386;43.846;25.950;2023-01-24T10:51:24;103166.50;;;4.11;87.76
20630;BME280;17386;43.846;25.950;2023-01-24T10:53:50;103172.50;;;4.06;87.19
20630;BME280;17386;43.846;25.950;2023-01-24T10:56:18;103172.53;;;4.07;87.46
20630;BME280;17386;43.846;25.950;2023-01-24T10:59:05;103172.78;;;4.17;87.24
20630;BME280;17386;43.846;25.950;2023-01-24T11:01:37;103169.03;;;4.08;87.01
20630;BME280;17386;43.846;25.950;2023-01-24T11:04:35;103170.53;;;3.99;87.51
20630;BME280;17386;43.846;25.950;2023-01-24T11:07:00;103161.91;;;4.04;87.57
20630;BME280;17386;43.846;25.950;2023-01-24T11:09:30;103160.13;;;4.03;88.50
20630;BME280;17386;43.846;25.950;2023-01-24T11:11:57;103159.25;;;4.04;88.46
20630;BME280;17386;43.846;25.950;2023-01-24T11:14:28;103152.19;;;4.02;88.39
20630;BME280;17386;43.846;25.950;2023-01-24T11:16:58;103155.44;;;3.93;89.05
20630;BME280;17386;43.846;25.950;2023-01-24T11:19:35;103146.50;;;3.88;90.16
20630;BME280;17386;43.846;25.950;2023-01-24T11:22:25;103140.75;;;4.00;90.73
20630;BME280;17386;43.846;25.950;2023-01-24T11:24:56;103139.75;;;3.96;90.76
20630;BME280;17386;43.846;25.950;2023-01-24T11:27:23;103140.63;;;3.97;90.64
20630;BME280;17386;43.846;25.950;2023-01-24T11:30:19;103140.44;;;3.91;89.90
20630;BME280;17386;43.846;25.950;2023-01-24T11:35:34;103140.47;;;4.21;91.15
20630;BME280;17386;43.846;25.950;2023-01-24T11:38:41;103143.13;;;4.22;88.52
20630;BME280;17386;43.846;25.950;2023-01-24T11:41:18;103139.16;;;4.05;87.53
20630;BME280;17386;43.846;25.950;2023-01-24T11:44:31;103130.34;;;4.04;86.95
20630;BME280;17386;43.846;25.950;2023-01-24T11:46:44;103130.47;;;4.09;86.49
20630;BME280;17386;43.846;25.950;2023-01-24T12:05:31;103131.50;;;4.14;85.22
20630;BME280;17386;43.846;25.950;2023-01-24T12:11:15;103128.78;;;4.11;84.32
20630;BME280;17386;43.846;25.950;2023-01-24T12:13:48;103139.44;;;4.16;83.82
20630;BME280;17386;43.846;25.950;2023-01-24T12:21:26;103132.53;;;4.19;83.14
20630;BME280;17386;43.846;25.950;2023-01-24T12:24:17;103141.94;;;4.11;82.74
20630;BME280;17386;43.846;25.950;2023-01-24T12:26:49;103141.44;;;4.24;83.06
20630;BME280;17386;43.846;25.950;2023-01-24T12:29:31;103139.59;;;4.20;82.44
20630;BME280;17386;43.846;25.950;2023-01-24T12:32:21;103135.59;;;4.34;82.64
20630;BME280;17386;43.846;25.950;2023-01-24T12:37:26;103143.78;;;4.14;82.69
20630;BME280;17386;43.846;25.950;2023-01-24T12:40:20;103139.25;;;4.09;82.90
20630;BME280;17386;43.846;25.950;2023-01-24T12:45:59;103132.25;;;4.10;83.21
20630;BME280;17386;43.846;25.950;2023-01-24T12:48:34;103127.81;;;4.07;83.76
20630;BME280;17386;43.846;25.950;2023-01-24T12:52:07;103122.44;;;4.04;82.87
20630;BME280;17386;43.846;25.950;2023-01-24T12:54:30;103125.84;;;4.32;82.75
20630;BME280;17386;43.846;25.950;2023-01-24T12:57:21;103125.34;;;4.45;81.81
20630;BME280;17386;43.846;25.950;2023-01-24T12:59:48;103129.72;;;4.45;80.43
20630;BME280;17386;43.846;25.950;2023-01-24T13:13:19;103115.88;;;4.52;79.65
20630;BME280;17386;43.846;25.950;2023-01-24T13:16:03;103117.78;;;4.57;79.44
20630;BME280;17386;43.846;25.950;2023-01-24T13:18:48;103116.16;;;4.61;78.91
20630;BME280;17386;43.846;25.950;2023-01-24T13:21:29;103112.16;;;4.44;78.21
20630;BME280;17386;43.846;25.950;2023-01-24T13:24:24;103112.38;;;4.51;79.38
20630;BME280;17386;43.846;25.950;2023-01-24T13:32:21;103115.00;;;4.51;80.34
20630;BME280;17386;43.846;25.950;2023-01-24T13:34:50;103107.13;;;4.53;80.60
20630;BME280;17386;43.846;25.950;2023-01-24T13:37:20;103104.59;;;4.56;80.55
20630;BME280;17386;43.846;25.950;2023-01-24T13:39:59;103107.59;;;4.38;80.36
20630;BME280;17386;43.846;25.950;2023-01-24T13:42:37;103119.78;;;4.33;80.59
20630;BME280;17386;43.846;25.950;2023-01-24T13:48:02;103118.63;;;4.25;81.67
20630;BME280;17386;43.846;25.950;2023-01-24T13:50:32;103128.47;;;4.30;82.14
20630;BME280;17386;43.846;25.950;2023-01-24T13:52:59;103126.09;;;4.39;82.10
20630;BME280;17386;43.846;25.950;2023-01-24T14:00:29;103124.03;;;4.29;81.87
20630;BME280;17386;43.846;25.950;2023-01-24T14:03:31;103120.53;;;4.29;81.57
20630;BME280;17386;43.846;25.950;2023-01-24T14:21:19;103128.25;;;4.23;79.62
20630;BME280;17386;43.846;25.950;2023-01-24T14:23:47;103129.97;;;4.22;78.94
20630;BME280;17386;43.846;25.950;2023-01-24T14:26:16;103126.50;;;4.23;79.04
20630;BME280;17386;43.846;25.950;2023-01-24T14:28:45;103131.97;;;4.31;79.49
20630;BME280;17386;43.846;25.950;2023-01-24T14:31:36;103127.44;;;4.25;79.22
20630;BME280;17386;43.846;25.950;2023-01-24T14:34:24;103122.09;;;4.22;79.68
20630;BME280;17386;43.846;25.950;2023-01-24T14:37:02;103119.47;;;4.22;78.96
20630;BME280;17386;43.846;25.950;2023-01-24T14:39:28;103124.16;;;4.02;79.92
20630;BME280;17386;43.846;25.950;2023-01-24T14:41:56;103123.69;;;4.17;80.19
20630;BME280;17386;43.846;25.950;2023-01-24T14:44:25;103124.75;;;4.24;79.91
20630;BME280;17386;43.846;25.950;2023-01-24T14:46:59;103126.88;;;4.37;80.46
20630;BME280;17386;43.846;25.950;2023-01-24T14:49:31;103130.38;;;4.36;79.87
20630;BME280;17386;43.846;25.950;2023-01-24T14:51:57;103127.22;;;4.18;79.08